DADES METEOROLÒGIQUES DE VIC GENER 2003 temperatura ºC

Texto completo

(1)

DADES METEOROLÒGIQUES DE VIC GENER 2003

velocitat vent

màxima mínima zona esportiva plaça Major km/h

01/01/2003 9,0 0,0 100 1018,9 0,0 0,0

02/01/2003 16,5 2,2 98 1014,0 0,0 2,0 E

03/01/2003 14,7 10,5 79 1011,2 0,0 13,0 W

04/01/2003 10,0 2,8 94 1012,0 0,0 8,0 NW

05/01/2003 4,8 -1,8 98 1010,2 0,0 2,0 W boirina

06/01/2003 5,6 0,9 99 996,0 13,6 2,0 SSE

07/01/2003 2,0 -3,7 100 1007,8 2,2 2,0 NW boira

08/01/2003 5,5 -0,4 96 1004,3 IP 2,0 WNW

09/01/2003 7,2 2,0 98 1005,3 3,7 3,0 N

10/01/2003 5,7 -1,0 100 1009,0 0,0 0,0 boira

11/01/2003 4,9 -3,8 97 1013,2 0,0 8,0 W

12/01/2003 5,5 -6,4 98 1021,3 0,0 2,0 NW

13/01/2003 3,0 -6,5 97 1029,4 0,0 0,0

14/01/2003 9,0 -5,6 97 1033,1 0,0 4,0 W

15/01/2003 9,9 -4,4 97 1032,6 0,0 5,0 W

16/01/2003 8,0 -4,6 97 1029,9 0,0 4,0 W

17/01/2003 10,0 -1,9 95 1024,6 0,0 2,0 SE

18/01/2003 5,0 -5,0 99 1022,0 0,0 0,0 boira gebradora

19/01/2003 12,0 -1,7 94 1014,0 IP 0,0

20/01/2003 10,0 4,0 95 1015,9 5,2 3,0 NW

21/01/2003 10,6 4,5 94 1001,0 1,7 11,0 NW

22/01/2003 11,5 -0,5 97 1008,3 0,0 2,0 W

23/01/2003 12,5 -0,6 98 1017,5 0,0 2,0 NE

24/01/2003 12,9 -1,7 76 1025,2 0,0 4,0 W

25/01/2003 11,5 -5,5 85 1026,9 0,0 2,0 W

26/01/2003 4,9 -3,3 96 1027,0 0,0 3,0 W

27/01/2003 22,5 3,0 88 1025,9 IP 3,0 S

28/01/2003 15,1 1,1 90 1026,9 0,0 5,0 W

29/01/2003 11,2 -2,1 100 1014,0 0,0 0,0 boira

30/01/2003 8,6 -2,1 60 1011,0 0,0 10,0 NW

31/01/2003 5,8 -0,5 50 998,5 0,2 23,0 N

temp. Màx temp. Min mitjana % mitjana litres totals neu màx velocitat mitja km/h d.dominant dies de boira

22,5 -6,5 92,32 1016,35 26,6 0,0 4,10 W 4

mitjana Màx mitjana Mín litres màx dia ratxa Màx

9,2 -1,0 13,6 23,0

direcció estat del cel visibilitat data temperatura ºC

humitat % pressió hPa pluja recollida l/m2

neu cm

(2)

DADES METEOROLÒGIQUES DE VIC FEBRER 2003

velocitat vent

màxima mínima zona esportiva plaça Major km/h

01/02/2003 7,9 -6,2 57 1018,0 0,0 0,0

02/02/2003 7,7 -4,0 95 1021,5 0,0 4,0 SW

03/02/2003 12,0 -1,6 97 1019,2 0,0 2,0 SE

04/02/2003 12,4 7,4 80 1000,2 0,0 31,0 W

05/02/2003 10,4 -2,2 60 1010,5 1,0 5,0 W

06/02/2003 10,1 -2,6 90 1016,3 0,0 3,0 S

07/02/2003 10,0 -2,1 98 1023,0 0,0 4,0 W boira

08/02/2003 14,5 -5,1 98 1022,0 0,0 3,0 W boira gebradora

09/02/2003 12,9 -3,9 97 1020,0 0,0 3,0 NW boirina

10/02/2003 12,1 0,2 97 1016,9 0,2 7,0 W

11/02/2003 11,3 -1,6 94 1022,0 0,0 2,0 W

12/02/2003 6,4 -0,4 95 1020,9 0,0 2,0 W

13/02/2003 6,7 3,8 95 1018,0 0,2 2,0 NE

14/02/2003 6,5 1,9 98 1018,9 0,6 2,0 W

15/02/2003 5,8 0,6 90 1020,2 0,2 2,0 NE

16/02/2003 8,8 -5,5 97 1021,0 0,4 3,0 NE

17/02/2003 5,2 -7,8 92 1019,1 0,0 5,0 NW

18/02/2003 7,8 -3,3 97 1017,0 7,5 12,0 0,0 boira

19/02/2003 2,9 -0,6 97 1014,0 IP 2,0 NW boira

20/02/2003 5,6 1,6 98 1003,0 12,2 6,0 NE

21/02/2003 8,0 3,9 98 1013,9 18,3 2,0 NE

22/02/2003 9,9 1,1 98 1021,9 0,0 6,0 W

23/02/2003 11,6 3,8 98 1026,8 0,4 3,0 NW boira

24/02/2003 10,4 4,8 98 1026,0 0,8 2,0 W boira

25/02/2003 8,0 5,5 97 1020,0 0,2 6,0 NE

26/02/2003 11,2 7,6 95 1012,0 10,8 14,0 SE

27/02/2003 11,6 5,2 98 1009,9 16,9 2,0 N

28/02/2003 14,6 1,7 98 1025,5 0,4 2,0 W

temp. Màx temp. Min mitjana % mitjana litres totals neu màx velocitat mitja km/h d.dominant dies de boira

14,6 -7,8 92,93 1017,78 70,1 12,0 4,5 W 6

mitjana Màx mitjana Mín litres màx dia ratxa Màx

direcció estat del cel visibilitat data temperatura ºC

humitat % pressió hPa pluja recollida l/m2

neu cm

(3)

DADES METEOROLÒGIQUES DE VIC MARÇ 2003

velocitat vent

màxima mínima zona esportiva plaça Major km/h

01/03/2003 14,9 1,0 97 1025,2 0,0 2,0 S

02/03/2003 16,5 2,4 98 1021,0 0 0 boirines

03/03/2003 17,4 4,3 98 1018,5 0,0 8,0 W boira

04/03/2003 20,0 5,0 100 1021,9 IP 0,0 boira

05/03/2003 17,3 2,4 96 1022,2 0,0 2,0 W boira

06/03/2003 15,0 9,3 98 1016,3 0,6 2,0 N

07/03/2003 17,4 3,9 96 1021,0 0,4 8,0 W

08/03/2003 16,6 3,6 98 1024,2 0,0 2,0 W boira

09/03/2003 18,9 3,6 98 1025,0 0,0 3,0 W boira

10/03/2003 20,7 2,4 100 1028,0 0,0 3,0 W boira

11/03/2003 20,0 2,2 98 1027,2 0,0 2,0 W boira

12/03/2003 22,2 -0,6 96 1024,7 0,0 2,0 W

13/03/2003 20,0 2,9 97 1022,0 0,0 2,0 W

14/03/2003 16,0 5,5 96 1018,0 0,0 2,0 W

15/03/2003 12,3 6,0 96 1022,0 0,0 2,0 W

16/03/2003 13,6 0,7 98 1030,9 0,2 2,0 W

17/03/2003 17,9 -2,5 96 1030,7 0,0 3,0 W

18/03/2003 17,0 -1,7 96 1022,1 0,0 2,0 W

19/03/2003 17,2 -1,6 96 1024,8 0,0 2,0 W

20/03/2003 19,8 -1,3 96 1023,0 0,0 2,0 W

21/03/2003 19,2 -0,6 97 1021,9 0,0 0,0

22/03/2003 16,5 -0,3 95 1017,4 0,0 2,0 SW

23/03/2003 17,0 0,9 92 1022,3 0,0 0,0

24/03/2003 17,5 -0,2 94 1028,9 0,0 2,0 W

25/03/2003 17,6 -0,7 96 1024,9 0,0 0,0

26/03/2003 17,0 -0,8 97 1019,0 0,0 0,0 boira

27/03/2003 18,4 5,4 97 1019,0 0,0 3,0 W boira

28/03/2003 12,6 8,9 98 1011,9 2,0 3,0 SSE

29/03/2003 16,0 7,7 100 1011,0 15,8 2,0 W boira

30/03/2003 12,9 6,6 96 1013,0 IP 0,0

31/03/2003 18,7 5,7 97 1014,0 0,9 2,0 WE

temp. Màx temp. Min mitjana % mitjana litres totals litres totals neu màx velocitat mitja km/h d.dominant dies de boira

22,2 -2,5 96,87 1021,68 0,0 19,9 0,0 2,1 W 10

mitjana Màx mitjana Mín litres màx dia ratxa Màx

17,2 2,6 15,8 8,0

data temperatura ºC humitat % pressió hPa pluja recollida l/m2 direcció estat del cel visibilitat neu cm

(4)

DADES METEOROLÒGIQUES DE VIC ABRIL 2003

velocitat vent

màxima mínima zona esportiva plaça Major km/h

01/04/2003 20,8 5,2 99 1021,0 0,6 0,0 boira

02/04/2003 13,0 7,5 96 1015,0 IP 2,0 W boira

03/04/2003 12,4 3,1 56 1005,8 1,8 20,0 NW

04/04/2003 15,7 -2,6 93 1013,9 0,0 2,0 NW

05/04/2003 18,4 -1,6 92 1018,0 0,0 2,0 W

06/04/2003 23,9 0,2 96 1014,8 0,0 0,0

07/04/2003 17,1 1,4 92 1010,0 0,0 4,0 W

08/04/2003 10,6 6,6 86 1015,6 0,0 4,0 NE

09/04/2003 16,2 2,6 96 1011,4 0,0 5,0 NW

10/04/2003 15,7 4,0 96 1005,0 13,7 10,0 NW

11/04/2003 15,5 2,2 95 1008,9 0,0 2,0 W

12/04/2003 17,0 2,8 93 1015,0 0,0 3,0 W

13/04/2003 20,3 2,9 94 1018,0 0,0 2,0 SW

14/04/2003 13,0 8,9 62 1012,0 0,0 14,0 NE

15/04/2003 16,6 8,4 89 1014,0 0,4 2,0 W

16/04/2003 17,1 10,7 76 1017,5 0,0 18,0 E

17/04/2003 21,5 3,9 90 1022,2 0,0 2,0 W

18/04/2003 23,7 7,8 85 1021,1 0,0 2,0 W

19/04/2003 20,6 8,3 85 1007,0 IP 2,0 W

20/04/2003 14,3 7,9 92 1001,0 2,4 4,0 W

21/04/2003 19,4 2,6 85 1011,0 IP 2,0 SW

22/04/2003 19,6 4,5 96 1011,3 0,0 3,0 W

23/04/2003 21,0 3,6 94 1009,9 0,0 2,0 W

24/04/2003 25,0 4,3 94 1014,0 0,0 3,0 W

25/04/2003 24,5 7,6 90 1013,2 0,0 3,0 W

26/04/2003 23,5 6,9 75 1012,8 0,0 2,0 W

27/04/2003 22,3 7,6 82 1011,9 0,0 5,0 NE

28/04/2003 25,8 8,7 92 1018,2 0,2 3,0 W

29/04/2003 27,6 6,9 79 1012,0 0,0 2,0 W

30/04/2003 21,5 12,3 62 1010,1 0,4 15,0 SW

temp. Màx temp. Min mitjana % mitjana litres totals litres totals neu màx velocitat mitja km/h d.dominant dies de boira

27,6 -2,6 87,07 1013,1 0,0 19,5 0,0 4,7 W 2

mitjana Màx mitjana Mín litres màx dia ratxa Màx

direcció estat del cel visibilitat data temperatura ºC

humitat % pressió hPa pluja recollida l/m2

neu cm

(5)

DADES METEOROLÒGIQUES DE VIC MAIG 2003

velocitat vent

màxima mínima zona esportiva plaça Major km/h

01/05/2003 21,6 5,7 83 1020,8 0,2 2,0

02/05/2003 26,5 10,0 93 1013,9 2,4 5,0 SW

03/05/2003 24,8 8,0 98 1019,1 0,0 2,0 W boira

04/05/2003 26,2 7,9 90 1018,0 0,0 0,0 boirines

05/05/2003 25,5 8,7 77 1010,0 IP 3,0 W

06/05/2003 20,3 14,4 74 1008,2 0,0 13,0 SE

07/05/2003 17,9 11,7 90 1008,9 6,7 11,0 SE*

08/05/2003 21,0 11,1 86 1019,0 2,0 2,0 SO

09/05/2003 25,5 9,3 82 1017,5 IP 2,0 W

10/05/2003 21,9 8,4 90 1016,0 0,0 2,0 W

11/05/2003 24,4 7,7 85 1017,5 0,0 2,0 W

12/05/2003 25,3 9,2 100 1019,0 1,1 2,0 W boira

13/05/2003 24,1 12,4 80 1017,3 0,0 0,0

14/05/2003 20,3 10,4 73 1019,0 0,0 2,0 S

direcció estat del cel visibilitat data temperatura ºC

humitat % pressió hPa pluja recollida l/m2

neu cm

15/05/2003 20,7 10,4 88 1019,0 0,0 3,0 W

16/05/2003 21,8 10,1 90 1013,5 0,0 2,0 W

17/05/2003 19,6 11,2 89 1012,9 7,5 5,0 SW

18/05/2003 27,5 9,3 92 1019,0 IP 2,0 W

19/05/2003 29,3 11,1 84 1017,9 0,0 0,0

20/05/2003 20,0 12,0 79 1020,6 1,2 3,0 E

21/05/2003 20,5 8,1 90 1024,0 0,0 2,0 NW boira

22/05/2003 27,0 8,3 90 1025,5 0,0 3,0 W boira

23/05/2003 29,3 9,3 94 1019,9 0,0 0,0 boira

24/05/2003 23,1 8,5 66 1008,0 0,0 3,0 W

25/05/2003 16,7 9,5 98 1010,0 15,6 2,0 E

26/05/2003 18,0 8,5 96 1010,2 1,1 0,0

27/05/2003 23,2 7,0 80 1016,4 0,8 5,0 W

28/05/2003 26,0 12,7 75 1016,0 0,0 3,0 W

29/05/2003 29,0 11,4 77 1013,0 0,0 0,0

30/05/2003 29,6 14,4 78 1012,0 0,0 2,0 W

31/05/2003 31,0 15,2 74 1012,8 0,0 3,0 W

temp. Màx temp. Min mitjana % mitjana litres totals litres totals neu màx velocitat mitja km/h d.dominant dies de boira

31,0 5,7 85,19 1016,0 0 38,6 0,0 2,77 W 5

mitjana Màx mitjana Mín litres màx dia ratxa Màx *Cop de vent màxim de 68,4 km.

23,8 10,1 15,6 13,0

23,8 10,1 15,6 13,0

(6)

DADES METEOROLÒGIQUES DE VIC JUNY 2003

velocitat vent

màxima mínima zona esportiva plaça Major km/h

01/06/2003 30,3 12,7 70 1010,8 IP 5,0 W

02/06/2003 29,6 13,0 76 1010,2 0,0 0,0

03/06/2003 28,3 12,9 85 1011,9 IP 2,0 NW

04/06/2003 28,9 11,4 70 1014,2 0,0 2,0 W

05/06/2003 23,4 13,2 65 1017,0 0,0 3,0 W

06/06/2003 28,3 11,7 80 1019,1 0,2 3,0 W

07/06/2003 28,5 13,9 76 1017,5 2,9 2,0 NW

08/06/2003 29,0 12,3 71 1015,9 0,0 2,0 W

09/06/2003 30,6 13,5 69 1017,5 0,0 2,0 W

10/06/2003 31,9 13,3 65 1016,9 0,0 2,0 W

11/06/2003 32,1 13,4 68 1018,1 0,0 0,0

12/06/2003 33,6 13,6 61 1018,0 0,0 2,0 W

13/06/2003 34,1 13,8 65 1019,0 0,0 2,0 W

14/06/2003 37,0 15,1 60 1018,1 0,0 2,0 W

15/06/2003 34,5 19,4 80 1017,0 IP 2,0 SW

16/06/2003 32,3 15,0 79 1012,3 IP 2,0 NW

17/06/2003 30,6 16,1 71 1011,1 IP 2,0 NW

18/06/2003 28,4 15,4 92 1017,0 8,6 2,0 W boira

19/06/2003 33,0 15,6 78 1019,1 IP 5,0 W

20/06/2003 35,6 13,8 62 1020,0 0,0 2,0 NW

21/06/2003 37,6 14,8 57 1015,0 0,0 2,0 W

22/06/2003 37,2 14,3 48 1011,1 0,0 0,0

23/06/2003 35,7 12,9 47 1012,0 0,0 0,0

24/06/2003 35,4 16,6 60 1015,4 0,0 3,0 NW

25/06/2003 38,6 16,2 54 1015,5 0,0 0,0

26/06/2003 34,2 18,9 56 1014,0 0,0 3,0 W

27/06/2003 31,7 18,9 75 1012,3 0,0 3,0 NE boirines

28/06/2003 28,5 15,9 92 1013,1 71,7 0,0

29/06/2003 32,0 16,4 90 1009,0 5,3 0,0 boira

30/06/2003 31,6 16,2 90 1006,9 0,0 5,0 W boira

temp. Màx temp. Min mitjana % mitjana litres totals litres totals neu màx velocitat mitja km/h d.dominant dies de boira

38,6 11,4 70,40 1014,8 0,0 88,7 0,0 2,0 W 3

mitjana Màx mitjana Mín litres màx dia ratxa Màx

direcció estat del cel visibilitat data temperatura ºC

humitat % pressió hPa pluja recollida l/m2

neu cm

(7)

DADES METEOROLÒGIQUES DE VIC JULIOL 2003

velocitat vent

màxima mínima zona esportiva plaça Major km/h

01/07/2003 28,4 18,5 46 1005,9 0,0 19,0 W

02/07/2003 26,1 12,8 65 1010,0 0,0 4,0 NE

03/07/2003 25,7 16,9 67 1012,5 0,0 2,0 NW

04/07/2003 28,6 14,8 59 1016,0 0,0 5,0 SW

05/07/2003 28,5 16,7 77 1015,9 0,0 5,0 W

06/07/2003 29,5 14,6 79 1016,8 0,0 5,0 NW

07/07/2003 31,8 12,7 85 1019,1 5,5 2,0 W boira

08/07/2003 32,7 15,7 80 1019,7 0,0 0,0

09/07/2003 26,0 17,6 90 1016,1 8,7 2,0 NW

10/07/2003 32,9 13,9 90 1016,5 0,8 2,0 W

11/07/2003 35,9 14,9 76 1016,9 0,0 0,0

12/07/2003 34,1 17,1 70 1016,9 0,0 0,0

13/07/2003 36,4 15,9 66 1014,9 0,0 0,0

14/07/2003 33,2 16,3 53 1010,9 0,0 3,0 ENW

15/07/2003 32,3 19,2 90 1010,0 0,0 2,0 NW boirines

16/07/2003 32,4 15,6 62 1008,5 0,0 2,0 SW

17/07/2003 29,3 15,4 69 1018,0 0,0 2,0 S

18/07/2003 32,9 16,3 80 1020,0 0,0 2,0 W

19/07/2003 37,5 17,2 75 1017,0 0,0 0,0 boirines

20/07/2003 34,1 17,3 67 1015,0 0,0 2,0 SW

21/07/2003 36,5 17,5 64 1013,8 IP 2,0 SE

22/07/2003 34,4 19,6 83 1016,7 0,0 3,0 SW

23/07/2003 33,5 19,9 80 1017,5 0,0 3,0 W

24/07/2003 32,6 14,7 75 1017,0 IP 0,0

25/07/2003 33,7 20,2 89 1016,0 0,0 2,0 W

26/07/2003 34,3 19,1 73 1014,0 0,0 0,0

27/07/2003 34,3 18,9 77 1011,0 0,0 3,0 SW

28/07/2003 32,0 19,5 60 1018,2 IP 3,0 NW

29/07/2003 32,1 19,7 72 1021,0 0,0 3,0 W

30/07/2003 33,5 18,4 76 1018,9 0,0 2,0 NW

31/07/2003 29,7 15,4 70 1014,3 0,0 0,0

temp. Màx temp. Min mitjana % mitjana litres totals litres totals neu màx velocitat mitja km/h d.dominant dies de boira

37,5 12,7 73,06 1015,3 0,0 15,0 0,0 2,6 W 1

mitjana Màx mitjana Mín litres màx dia ratxa Màx

32,1 16,8 8,7 19,0

direcció estat del cel visibilitat data temperatura ºC

humitat % pressió hPa pluja recollida l/m2

neu cm

(8)

DADES METEOROLÒGIQUES DE VIC AGOST 2003

velocitat vent

màxima mínima zona esportiva plaça Major km/h

01/08/2003 31,7 17,4 96 1014,0 2,9 2,0 W

02/08/2003 35,3 17,4 72 1017,0 0,0 0,0

03/08/2003 35,5 16,7 56 1018,3 0,0 3,0 SW

04/08/2003 36,1 16,9 58 1020,0 0,0 2,0 W

05/08/2003 35,9 15,9 66 1020,1 0,0 0,0

06/08/2003 36,2 15,8 64 1019,5 0,0 0,0

07/08/2003 36,3 17,3 56 1018,5 0,0 0,0

08/08/2003 35,4 16,7 73 1017,5 IP 0,0

09/08/2003 35,5 16,6 60 1018,0 IP 0,0

10/08/2003 36,9 17,0 70 1016,4 0,0 0,0

11/08/2003 36,4 16,9 49 1017,3 0,0 3,0 W

12/08/2003 37,9 16,2 48 1029,9 0,0 0,0

13/08/2003 38,6 16,6 48 1021,5 0,0 0,0

14/08/2003 38,3 17,8 45 1018,0 0,0 2,0 W

15/08/2003 34,5 18,0 51 1014,0 0,0 0,0

16/08/2003 33,0 18,4 84 1012,0 0,0 3,0 S

17/08/2003 27,4 19,3 80 1012,4 0,0 0,0

18/08/2003 32,8 16,3 82 1017,0 20,4 0,0

19/08/2003 33,3 15,7 75 1019,2 0,0 2,0 W

20/08/2003 32,8 15,9 80 1016,0 0,0 0,0

21/08/2003 31,0 17,4 90 1015,9 0,0 2,0 NW

22/08/2003 32,7 16,1 83 1016,2 0,0 3,0 NW

23/08/2003 34,2 19,9 78 1016,0 IP 0,0

24/08/2003 33,5 17,8 70 1013,0 0,0 0,0

25/08/2003 33,5 15,6 69 1010,9 0,0 0,0

26/08/2003 32,0 16,9 77 1012,2 IP 0,0

27/08/2003 34,4 17,4 84 1011,9 0,0 0,0

28/08/2003 30,7 15,9 79 1007,0 0,0 2,0 NW

29/08/2003 30,2 19,5 49 1004,1 0,0 11,0 W

30/08/2003 30,7 13,3 64 1013,9 0,0 2,0 NW

31/08/2003 27,5 17,8 83 1015,9 0,0 0,0

temp. Màx temp. Min mitjana % mitjana litres totals litres totals neu màx velocitat mitja km/h d.dominant dies de boira

38,6 13,3 69,00 1015,9 0,0 23,3 0,0 1,2 W 0

mitjana Màx mitjana Mín litres màx dia ratxa Màx

direcció estat del cel visibilitat data temperatura ºC

humitat % pressió hPa pluja recollida l/m2

neu cm

(9)

DADES METEOROLÒGIQUES DE VIC SETEMBRE 2003

velocitat vent

màxima mínima zona esportiva plaça Major km/h

01/09/2003 24,3 16,1 96 1014,2 16,7 2,0 W

02/09/2003 19,9 14,4 97 1017,8 24,0 6,0 NE

03/09/2003 23,9 13,9 92 1018,2 1,2 3,0 NW

04/09/2003 23,1 13,1 87 1022,1 IP 3,0 NW

05/09/2003 28,7 16,6 92 1018,0 IP 3,0 NW

06/09/2003 27,0 15,8 92 1018,1 IP 2,0 W

07/09/2003 21,3 15,5 89 1015,0 IP 0,0

08/09/2003 23,5 14,9 95 1011,6 19,0 0,0

09/09/2003 24,1 15,2 85 1005,0 0,2 2,0 W

10/09/2003 27,7 12,3 82 1016,1 0,0 2,0 E

11/09/2003 27,0 10,8 83 1019,0 0,0 0,0

12/09/2003 29,0 11,3 86 1021,0 0,0 0,0

13/09/2003 27,6 15,9 86 1021,8 0,0 2,0 W

14/09/2003 22,7 13,7 61 1018,6 0,0 20,0 NE

15/09/2003 23,1 8,1 86 1021,0 0,0 3,0 W

16/09/2003 26,0 7,4 78 1021,9 0,0 0,0

17/09/2003 29,0 8,8 92 1021,2 0,0 0,0

18/09/2003 27,0 9,4 84 1020,5 0,0 5,0 W

19/09/2003 25,4 9,6 93 1019,9 0,0 3,0 W

20/09/2003 25,5 11,4 96 1021,6 0,0 2,0 SW

21/09/2003 27,0 12,3 98 1022,0 0,0 0,0 boira

22/09/2003 25,3 17,1 89 1016,9 0,0 0,0

23/09/2003 25,0 14,3 96 1015,0 8,5 3,0 W

24/09/2003 23,4 15,7 83 1017,9 1,6 6,0 SW

25/09/2003 24,9 16,0 87 1020,1 0,0 0,0

26/09/2003 23,6 12,4 98 1021,0 0,0 2,0 SW boira

27/09/2003 19,8 16,1 96 1017,0 0,2 0,0

28/09/2003 23,9 16,5 90 1010,6 19,8 3,0 SE

29/09/2003 22,8 15,3 97 1012,1 12,9 3,0 SW

30/09/2003 19,7 13,3 97 1010,0 0,0 4,0 W

temp. Màx temp. Min mitjana % mitjana litres totals litres totals neu màx velocitat mitja km/h d.dominant dies de boira

29,0 7,4 89,43 1017,5 0,0 104,1 0,0 2,6 W 2

mitjana Màx mitjana Mín litres màx dia ratxa Màx

24,7 13,4 24,0 20,0

direcció estat del cel visibilitat data temperatura ºC

humitat % pressió hPa pluja recollida l/m2

neu cm

(10)

DADES METEOROLÒGIQUES DE VIC OCTUBRE 2003

velocitat vent

màxima mínima zona esportiva plaça Major km/h

01/10/2003 25,5 17,0 92 1005,0 18,5 8,0 W

02/10/2003 25,9 12,3 96 1011,0 0,0 5,0 W

03/10/2003 23,9 13,5 84 1011,9 0,0 6,0 SE

04/10/2003 21,5 12,8 95 1012,0 0,0 2,0 W

05/10/2003 19,5 8,5 85 1007,5 0,0 3,0 NW

06/10/2003 17,4 1,9 74 1016,9 0,0 5,0 NW

07/10/2003 20,0 3,3 94 1019,0 0,0 2,0 W

08/10/2003 22,0 8,3 96 1016,1 0,0 2,0 SW

09/10/2003 23,6 11,2 97 1020,0 0,0 2,0 NW

10/10/2003 23,8 8,3 98 1018,5 0,0 2,0 W boira

11/10/2003 20,3 14,2 84 1019,0 0,0 5,0 W

12/10/2003 20,7 13,3 96 1018,0 0,0 2,0 W

13/10/2003 20,7 13,1 96 1016,5 0,4 2,0 W

14/10/2003 20,6 12,6 98 1015,0 0,8 4,0 W

15/10/2003 16,0 14,3 84 1012,1 0,4 13,0 E

16/10/2003 14,6 12,9 76 1014,8 11,6 11,0 NE

17/10/2003 16,5 10,5 90 1007,1 8,5 11,0 NE

18/10/2003 13,0 11,4 88 1006,0 39,1 19,0 NE

19/10/2003 16,5 10,3 87 1007,0 IP 2,0 SE

20/10/2003 18,6 11,1 85 998,9 6,6 10,0 W

21/10/2003 16,0 8,5 94 1006,1 0,0 2,0 E

22/10/2003 16,1 9,5 95 1008,0 0,3 3,0 NW

23/10/2003 13,0 5,9 86 1004,0 5,0 8,0 NW

24/10/2003 13,8 0,6 98 1008,0 0,0 5,0 W

25/10/2003 14,3 1,5 97 1017,0 IP 2,0 W

26/10/2003 8,5 4,5 97 1013,5 2,1 0,0 boirines

27/10/2003 11,7 8,3 93 1011,0 23,6 0,0

28/10/2003 16,2 8,9 98 1011,3 3,6 2,0 NE

29/10/2003 14,6 10,9 85 1007,5 5,6 16,0 W

30/10/2003 13,2 3,8 98 1004,9 0,0 0,0

31/10/2003 13,5 9,9 84 986,9 1,3 31,0 W

temp. Màx temp. Min mitjana % mitjana litres totals litres totals neu màx velocitat mitja km/h d.dominant dies de boira

25,9 0,6 90,97 1010,7 0 127,4 0,0 6,0 W 1

mitjana Màx mitjana Mín litres màx dia ratxa Màx

direcció estat del cel visibilitat data temperatura ºC

humitat % pressió hPa pluja recollida l/m2

neu cm

(11)

DADES METEOROLÒGIQUES DE VIC NOVEMBRE 2003

velocitat vent

màxima mínima zona esportiva plaça Major km/h

01/11/2003 16,0 3,6 97 992,0 15,4 2,0 W

02/11/2003 14,6 4,1 95 1011,3 IP 3,0 W

03/11/2003 17,5 3,2 100 1018,5 0,0 0,0 boira

04/11/2003 18,7 2,1 98 1026,1 0,0 0,0 boira

05/11/2003 17,6 3,1 100 1025,9 0,0 0,0 boira

06/11/2003 16,5 -0,4 98 1024,1 0,0 0,0 boira

07/11/2003 16,5 -0,7 100 1015,5 0,0 0,0 boira

08/11/2003 14,1 7,2 96 1011,0 0,0 2,0 S boira

09/11/2003 15,3 9,3 100 1018,4 4,7 0,0 boira

10/11/2003 15,1 10,7 100 1016,8 IP 0,0 boira

11/11/2003 14,0 9,9 98 1017,9 0,0 0,0 boira

12/11/2003 16,9 10,4 94 1018,4 0,0 3,0 W

13/11/2003 15,2 8,8 98 1023,5 0,2 0,0 boira

14/11/2003 13,7 5,1 98 1022,0 0,0 2,0 W

15/11/2003 10,5 4,9 100 1016,7 0,0 0,0 boira

16/11/2003 13,6 9,3 97 1004,0 7,9 2,0 NE

17/11/2003 15,3 8,9 98 1016,0 1,3 0,0

18/11/2003 16,5 6,2 98 1022,2 0,0 3,0 NW boira

19/11/2003 15,5 2,6 95 1023,0 0,0 0,0

20/11/2003 15,4 4,5 96 1019,2 0,0 0,0

21/11/2003 17,0 6,5 98 1014,0 0,0 0,0 boira

22/11/2003 14,7 6,8 98 1010,5 0,4 0,0 boira

23/11/2003 15,1 9,3 97 1004,2 0,4 0,0

24/11/2003 13,5 9,3 98 1003,0 27,2 3,0 W

25/11/2003 15,5 6,2 100 1009,7 0,0 2,0 SSW boira

26/11/2003 10,0 6,2 93 1008,2 0,0 3,0 E

27/11/2003 10,8 6,6 87 997,0 1,0 21,0 NW

28/11/2003 11,2 0,2 95 1009,3 0,0 2,0 SW

29/11/2003 11,1 2,5 95 1011,8 0,0 2,0 E

30/11/2003 13,4 3,9 97 1012,0 0,0 0,0

temp. Màx temp. Min mitjana % mitjana litres totals litres totals neu màx velocitat mitja km/h d.dominant dies de boira

18,7 -0,7 97,13 1014,1 0 58,5 0,0 1,67 W 15

mitjana Màx mitjana Mín litres màx dia ratxa Màx

14,7 5,7 27,2 21,0

direcció estat del cel visibilitat data temperatura ºC

humitat % pressió hPa pluja recollida l/m2

neu cm

(12)

DADES METEOROLÒGIQUES DE VIC DESEMBRE 2003

velocitat vent

màxima mínima zona esportiva plaça Major km/h

01/12/2003 9,7 7,6 98 1001,5 1,5 2,0 NE

02/12/2003 10,0 5,8 96 1006,2 5,2 3,0 NW

03/12/2003 6,5 5,5 97 1007,0 1,0 2,0 SW

04/12/2003 10,0 4,2 94 1006,2 48,8 10,0 NW

05/12/2003 12,2 4,4 97 1018,5 4,0 6,0 NW

06/12/2003 13,5 4,9 97 1017,8 0,0 2,0 NW

07/12/2003 9,1 2,0 100 1012,0 0,0 2,0 NW boira

08/12/2003 9,2 6,0 86 1020,8 1,0 8,0 NE

09/12/2003 4,5 0,0 99 1015,5 0,0 0,0 boira

10/12/2003 8,9 -1,6 97 1011,0 0,0 2,0 SE

11/12/2003 2,2 -1,7 100 1018,6 0,0 2,0 SE boira

12/12/2003 9,7 0,6 99 1020,0 0,0 0,0 boira

13/12/2003 13,0 1,0 99 1025,0 0,0 0,0 boira

14/12/2003 13,5 2,4 98 1020,0 0,0 2,0 E

15/12/2003 9,7 3,0 92 1017,0 0,0 11,0 NW

16/12/2003 7,5 1,4 98 1021,9 0,0 0,0 boira

17/12/2003 11,0 1,0 95 1021,2 0,0 2,0 NW

18/12/2003 10,6 2,4 97 1018,7 0,0 2,0 W

19/12/2003 8,7 3,9 98 1017,1 0,0 5,0 NW

20/12/2003 6,5 3,0 100 1024,0 0,0 3,0 W boira

21/12/2003 10,9 3,0 100 1018,3 0,0 2,0 SW

22/12/2003 10,3 4,1 88 1014,2 0,0 10,0 NW

23/12/2003 5,3 -3,3 70 1022,5 0,0 3,0 NE

24/12/2003 9,0 -1,6 87 1021,8 0,0 3,0 S

25/12/2003 10,0 -4,2 98 1026,0 0,0 0,0

26/12/2003 11,2 -3,6 98 1021,0 0,0 2,0 WNW

27/12/2003 5,6 -0,6 97 1013,0 0,0 2,0 WNW

28/12/2003 6,1 0,2 89 1001,5 0,0 2,0 W

29/12/2003 5,2 -3,6 100 1010,0 2,2 3,0 S boira gebradora

30/12/2003 6,5 -3,4 97 1006,5 0,0 3,0 NO boirines

31/12/2003 11,4 -2,1 100 1011,0 0,0 2,0 E boira

temp. Màx temp. Min mitjana % mitjana litres totals litres totals neu màx velocitat mitja km/h d.dominant dies de boira

13,5 -4,2 95,52 1015,7 0,0 63,7 0,0 3,10 NW 9

mitjana Màx mitjana Mín litres màx dia ratxa Màx

direcció estat del cel visibilitat data temperatura ºC

humitat % pressió hPa pluja recollida l/m2

neu cm

(13)

paràmetres g f m a m j j a s o n d

TEMPERATURA MITJANA MENSUAL ( ºC ) 4,1 4,7 9,9 12,1 16,9 23,4 24,5 25,4 19,1 13,6 10,2 5,1 14,1T mitja ºC

TEMPERATURA MITJANA DE LES MÀXIMES MENSUALS (ºC) 9,2 9,4 17,2 19,1 23,8 32,1 32,1 33,9 24,7 17,8 14,7 9,0 20,2T màxima mitja ºC TEMPERATURA MITJANA DE LES MÍNIMES MENSUALS ( ºC ) -1,0 0,1 2,6 5,2 10,1 14,7 16,8 17,0 13,4 9,5 5,7 1,3 7,9T mínima mitja ºC

TEMPERATURA MÀXIMA ABSOLUTA MENSUAL ( ºC ) 22,5 14,6 22,2 27,6 31,0 38,6 37,5 38,6 29,0 25,9 18,7 13,5 38,6T màxima ºC TEMPERATURA MÍNIMA ABSOLUTA MENSUAL ( ºC ) -6,5 -7,8 -2,5 -2,6 5,7 11,4 12,7 13,3 7,4 0,6 -0,7 -4,2 -7,8T mínima ºC

NOMBRE DE DIES DE GLAÇADA ( T ≤ 0 ºC ) 22 14 10 2 0 0 0 0 0 0 2 11 61total dies

PRECIPITACIÓ MENSUAL ( l/m2 o mm ) 26,6 70,1 19,9 19,5 38,6 88,7 15,0 23,3 104,1 127,4 58,5 63,7 655,4total l/m2 - mm PRECIPITACIÓ MENSUAL MÀXIMA EN 24 HORES ( l/m2 o mm ) 13,6 18,3 15,8 13,7 15,6 71,7 8,7 20,4 24,0 39,1 27,2 48,8 26,4màxima l/m2-mm

NOMBRE DE DIES DE PRECIPITACIÓ (PPT24h ≥ 0,1 mm) 9 16 8 10 13 11 6 6 14 16 11 7 127total dies

VELOCITAT MITJANA DEL VENT MENSUAL ( km/h ) 4,1 4,5 2,1 4,7 2,8 2,0 2,6 1,2 2,6 6,0 1,7 3,1 3,1mitja km/h

DIRECCIÓ DOMINANT DEL VENT W W W W W W W W W W W NW Wd.dominant

MITJANA MENSUAL DE LA RATXA MÀXIMA DIÀRIA DEL VENT (km/h) 23,0 31,0 8,0 20,0 13,0 5,0 19,0 11,0 20,0 31,0 21,0 11,0 31,0màx.mitja km/h HUMITAT RELATIVA MITJANA MENSUAL ( % ) 92,3 92,9 96,9 87,1 85,2 70,4 73,1 69,0 89,4 91,0 97,1 95,5 86,7mitja anual % PRESSIÓ ATMOSFÈRICA MITJANA MENSUAL, NIVELL DE L'EMA (HPa) 1016,4 1017,8 1021,7 1013,1 1016,0 1014,8 1015,3 1015,9 1017,5 1010,7 1014,1 1015,7 1015,7mitja anual %

GRUIX MÀXIM MENSUAL DE NEU AL TERRA (cm) 0,0 12,0 0,0 0,0 0,0 0,0 0,0 0,0 0,0 0,0 0,0 0,0 12,0total cm

DIES DE BOIRA 4 6 10 2 5 3 1 0 2 1 15 9 58total dies

Llegenda

ºC: graus centígrads T: temperatura

l/m2: litres per metre quadrat

PPT: precipitació acumulada en milímetres EMA: estació meteorològica automàtica HPa: Hecto Pascals

cm: centímetres

DADES METEOROLÒGIQUES A VIC 2003

resum anual

Figure

Actualización...

Referencias

Actualización...

Related subjects :